createdAt,value
2019-04-04T00:01:34.915Z,3.07
2019-04-04T00:04:05.271Z,2.77
2019-04-04T00:06:35.690Z,2.72
2019-04-04T00:09:09.194Z,2.70
2019-04-04T00:11:39.696Z,3.10
2019-04-04T00:14:12.719Z,3.13
2019-04-04T00:16:42.776Z,2.70
2019-04-04T00:19:13.178Z,2.57
2019-04-04T00:21:43.679Z,2.83
2019-04-04T00:24:13.463Z,3.43
2019-04-04T00:26:43.882Z,2.80
2019-04-04T00:29:16.826Z,2.90
2019-04-04T00:31:45.765Z,2.90
2019-04-04T00:34:16.184Z,3.17
2019-04-04T00:36:46.594Z,3.40
2019-04-04T00:39:17.035Z,3.30
2019-04-04T00:41:47.507Z,2.93
2019-04-04T00:44:18.036Z,3.60
2019-04-04T00:46:48.483Z,3.23
2019-04-04T00:49:18.780Z,3.43
2019-04-04T00:51:49.124Z,3.13
2019-04-04T00:54:18.947Z,3.50
2019-04-04T00:56:49.355Z,3.17
2019-04-04T00:59:19.144Z,3.00
2019-04-04T01:01:49.603Z,3.90
2019-04-04T01:04:20.067Z,3.77
2019-04-04T01:06:50.476Z,3.30
2019-04-04T01:09:20.275Z,3.33
2019-04-04T01:11:51.251Z,3.50
2019-04-04T01:14:21.535Z,3.33
2019-04-04T01:16:51.225Z,2.63
2019-04-04T01:19:20.903Z,1.67
2019-04-04T01:21:53.160Z,1.30
2019-04-04T01:24:23.328Z,1.00
2019-04-04T01:26:53.083Z,0.93
2019-04-04T01:29:22.763Z,1.12
2019-04-04T01:31:53.140Z,1.20
2019-04-04T01:34:22.903Z,1.17
2019-04-04T01:36:56.026Z,1.50
2019-04-04T01:39:25.417Z,1.80
2019-04-04T01:41:55.191Z,1.30
2019-04-04T01:44:25.539Z,1.30
2019-04-04T01:46:55.302Z,1.37
2019-04-04T01:49:25.550Z,1.40
2019-04-04T01:51:57.819Z,1.47
2019-04-04T01:54:27.292Z,1.90
2019-04-04T01:56:57.716Z,2.00
2019-04-04T01:59:27.433Z,1.83
2019-04-04T02:01:57.783Z,1.60
2019-04-04T02:04:28.253Z,1.55
2019-04-04T02:06:59.175Z,1.63
2019-04-04T02:09:30.011Z,1.50
2019-04-04T02:12:00.535Z,1.30
2019-04-04T02:14:30.864Z,1.40
2019-04-04T02:17:00.558Z,1.60
2019-04-04T02:19:30.791Z,1.23
2019-04-04T02:22:01.175Z,1.73
2019-04-04T02:24:31.801Z,1.13
2019-04-04T02:27:02.887Z,1.03
2019-04-04T02:29:33.350Z,1.00
2019-04-04T02:32:07.205Z,1.00
2019-04-04T02:34:37.986Z,0.90
2019-04-04T02:37:08.123Z,0.80
2019-04-04T02:39:37.758Z,0.40
2019-04-04T02:42:07.998Z,1.13
2019-04-04T02:44:38.416Z,0.50
2019-04-04T02:47:08.772Z,0.60
2019-04-04T02:49:38.574Z,0.70
2019-04-04T02:52:12.828Z,0.60
2019-04-04T02:54:40.907Z,0.90
2019-04-04T02:57:11.261Z,1.73
2019-04-04T02:59:41.662Z,0.87
2019-04-04T03:02:12.138Z,0.90
2019-04-04T03:04:45.842Z,1.10
2019-04-04T03:07:14.612Z,0.90
2019-04-04T03:09:44.331Z,0.90
2019-04-04T03:12:14.696Z,0.80
2019-04-04T03:14:45.080Z,1.10
2019-04-04T03:17:15.597Z,1.20
2019-04-04T03:19:46.016Z,1.13
2019-04-04T03:22:16.480Z,1.00
2019-04-04T03:24:46.266Z,1.20
2019-04-04T03:27:16.565Z,1.00
2019-04-04T03:29:46.892Z,1.00
2019-04-04T03:32:17.622Z,0.80
2019-04-04T03:34:50.056Z,0.93
2019-04-04T03:37:19.383Z,1.00
2019-04-04T03:39:51.891Z,1.20
2019-04-04T03:42:21.006Z,1.10
2019-04-04T03:44:53.302Z,1.57
2019-04-04T03:47:22.826Z,1.63
2019-04-04T03:49:56.610Z,0.90
2019-04-04T03:52:25.087Z,1.07
2019-04-04T03:54:56.327Z,1.10
2019-04-04T03:57:26.235Z,1.00
2019-04-04T03:59:55.866Z,1.00
2019-04-04T04:02:25.681Z,1.12
2019-04-04T04:05:00.568Z,1.07
2019-04-04T04:07:27.301Z,1.10
2019-04-04T04:09:59.819Z,1.40
2019-04-04T04:12:29.761Z,1.07
2019-04-04T04:15:00.168Z,1.30
2019-04-04T04:17:30.480Z,1.30
2019-04-04T04:20:03.912Z,1.10
2019-04-04T04:22:32.786Z,1.40
2019-04-04T04:25:03.705Z,1.40
2019-04-04T04:27:34.095Z,1.43
2019-04-04T04:30:07.280Z,1.40
2019-04-04T04:32:37.416Z,1.30
2019-04-04T04:35:08.660Z,2.20
2019-04-04T04:37:39.450Z,1.53
2019-04-04T04:40:13.887Z,2.00
2019-04-04T04:42:41.955Z,1.60
2019-04-04T04:45:12.641Z,1.50
2019-04-04T04:47:43.040Z,1.27
2019-04-04T04:50:16.844Z,1.60
2019-04-04T04:52:47.699Z,1.40
2019-04-04T04:55:17.511Z,1.60
2019-04-04T04:57:47.800Z,1.50
2019-04-04T05:00:17.735Z,1.83
2019-04-04T05:02:47.907Z,1.50
2019-04-04T05:05:17.836Z,1.30
2019-04-04T05:07:48.164Z,1.40
2019-04-04T05:10:18.297Z,2.23
2019-04-04T05:12:48.707Z,1.40
2019-04-04T05:15:21.427Z,1.63
2019-04-04T05:17:51.615Z,1.73
2019-04-04T05:20:24.888Z,1.60
2019-04-04T05:22:54.309Z,1.67
2019-04-04T05:25:24.724Z,1.80
2019-04-04T05:27:55.145Z,1.43
2019-04-04T05:30:25.633Z,1.27
2019-04-04T05:32:56.488Z,1.83
2019-04-04T05:35:26.813Z,1.83
2019-04-04T05:37:57.130Z,2.10
2019-04-04T05:40:30.615Z,1.92
2019-04-04T05:42:59.918Z,2.10
2019-04-04T05:45:29.625Z,1.95
2019-04-04T05:47:59.957Z,1.80
2019-04-04T05:50:29.762Z,2.00
2019-04-04T05:53:00.038Z,1.80
2019-04-04T05:55:29.768Z,2.00
2019-04-04T05:58:00.052Z,2.63
2019-04-04T06:00:30.480Z,1.90
2019-04-04T06:03:00.895Z,2.67
2019-04-04T06:05:31.865Z,1.77
2019-04-04T06:08:02.387Z,2.00
2019-04-04T06:10:32.849Z,2.08
2019-04-04T06:13:03.224Z,2.00
2019-04-04T06:15:33.018Z,2.63
2019-04-04T06:18:03.486Z,2.70
2019-04-04T06:20:34.239Z,2.80
2019-04-04T06:23:04.615Z,2.77
2019-04-04T06:25:35.858Z,3.33
2019-04-04T06:28:06.371Z,2.10
2019-04-04T06:30:43.036Z,2.47
2019-04-04T06:33:08.392Z,2.10
2019-04-04T06:35:39.845Z,1.70
2019-04-04T06:38:09.881Z,1.80
2019-04-04T06:40:40.315Z,1.80
2019-04-04T06:43:11.778Z,1.80
2019-04-04T06:45:42.358Z,1.70
2019-04-04T06:48:12.081Z,2.20
2019-04-04T06:50:43.151Z,1.17
2019-04-04T06:53:12.935Z,1.73
2019-04-04T06:55:43.225Z,1.80
2019-04-04T06:58:13.054Z,1.90
2019-04-04T07:00:43.908Z,1.83
2019-04-04T07:03:13.627Z,1.87
2019-04-04T07:05:44.012Z,2.00
2019-04-04T07:08:15.120Z,1.70
2019-04-04T07:10:57.383Z,1.23
2019-04-04T07:13:22.050Z,1.67
2019-04-04T07:16:03.445Z,1.90
2019-04-04T07:18:20.182Z,1.90
2019-04-04T07:20:49.888Z,2.37
2019-04-04T07:23:20.213Z,1.30
2019-04-04T07:25:53.430Z,1.93
2019-04-04T07:28:23.250Z,1.40
2019-04-04T07:30:54.577Z,1.50
2019-04-04T07:33:25.122Z,1.90
2019-04-04T07:35:55.539Z,1.70
2019-04-04T07:38:26.643Z,1.90
2019-04-04T07:40:57.950Z,1.83
2019-04-04T07:43:27.646Z,2.07
2019-04-04T07:45:59.693Z,1.93
2019-04-04T07:48:28.657Z,2.10
2019-04-04T07:50:58.497Z,2.10
2019-04-04T07:53:29.555Z,1.83
2019-04-04T07:55:59.212Z,2.10
2019-04-04T07:58:28.859Z,2.03
2019-04-04T08:00:59.124Z,2.10
2019-04-04T08:03:29.528Z,2.50
2019-04-04T08:06:00.013Z,2.50
2019-04-04T08:08:30.383Z,2.30
2019-04-04T08:11:00.872Z,2.13
2019-04-04T08:13:31.223Z,2.60
2019-04-04T08:16:00.970Z,2.30
2019-04-04T08:18:31.211Z,2.23
2019-04-04T08:21:01.580Z,2.37
2019-04-04T08:23:31.992Z,2.40
2019-04-04T08:26:02.307Z,1.97
2019-04-04T08:28:32.710Z,2.60
2019-04-04T08:31:03.133Z,2.20
2019-04-04T08:33:33.451Z,2.50
2019-04-04T08:36:06.145Z,2.10
2019-04-04T08:38:35.819Z,1.75
2019-04-04T08:41:06.310Z,2.03
2019-04-04T08:43:36.673Z,2.30
2019-04-04T08:46:07.067Z,2.60
2019-04-04T08:48:37.400Z,1.67
2019-04-04T08:51:07.135Z,1.50
2019-04-04T08:53:40.239Z,1.60
2019-04-04T08:56:09.474Z,1.70
2019-04-04T08:58:39.855Z,1.70
2019-04-04T09:01:10.239Z,2.07
2019-04-04T09:03:39.920Z,1.63
2019-04-04T09:06:09.575Z,1.80
2019-04-04T09:08:39.167Z,2.00
2019-04-04T09:11:09.459Z,1.90
2019-04-04T09:13:39.923Z,2.10
2019-04-04T09:16:10.272Z,1.63
2019-04-04T09:18:40.766Z,1.93
2019-04-04T09:21:11.147Z,1.87
2019-04-04T09:23:41.547Z,1.40
2019-04-04T09:26:11.894Z,2.00
2019-04-04T09:28:42.267Z,1.70
2019-04-04T09:31:12.625Z,1.97
2019-04-04T09:33:42.338Z,1.47
2019-04-04T09:36:11.963Z,1.87
2019-04-04T09:38:42.316Z,1.67
2019-04-04T09:41:12.679Z,1.50
2019-04-04T09:43:43.027Z,2.30
2019-04-04T09:46:13.441Z,1.40
2019-04-04T09:48:43.168Z,1.90
2019-04-04T09:51:13.404Z,1.70
2019-04-04T09:53:52.866Z,1.90
2019-04-04T09:56:15.807Z,1.50
2019-04-04T09:58:45.479Z,1.87
2019-04-04T10:01:15.753Z,1.87
2019-04-04T10:03:46.167Z,1.77
2019-04-04T10:06:16.685Z,1.80
2019-04-04T10:08:46.384Z,1.70
2019-04-04T10:11:16.647Z,2.10
2019-04-04T10:13:46.990Z,2.30
2019-04-04T10:16:16.687Z,2.00
2019-04-04T10:18:46.953Z,2.20
2019-04-04T10:21:16.667Z,1.50
2019-04-04T10:23:46.919Z,2.07
2019-04-04T10:26:16.674Z,2.07
2019-04-04T10:28:46.284Z,1.40
2019-04-04T10:31:15.973Z,2.07
2019-04-04T10:33:46.288Z,2.57
2019-04-04T10:36:15.987Z,2.10
2019-04-04T10:38:45.593Z,2.17
2019-04-04T10:41:15.206Z,2.00
2019-04-04T10:43:45.529Z,1.77
2019-04-04T10:46:15.930Z,1.47
2019-04-04T10:48:46.437Z,1.40
2019-04-04T10:51:16.154Z,1.83
2019-04-04T10:53:46.426Z,1.57
2019-04-04T10:56:16.835Z,1.83
2019-04-04T10:58:47.219Z,1.70
2019-04-04T11:01:16.937Z,2.27
2019-04-04T11:03:47.125Z,1.50
2019-04-04T11:06:16.825Z,1.85
2019-04-04T11:08:47.072Z,2.33
2019-04-04T11:11:16.801Z,2.17
2019-04-04T11:13:47.108Z,1.87
2019-04-04T11:16:29.568Z,1.67
2019-04-04T11:18:48.854Z,2.00
2019-04-04T11:21:18.584Z,2.00
2019-04-04T11:23:48.844Z,2.40
2019-04-04T11:26:18.546Z,2.07
2019-04-04T11:28:48.421Z,2.23
2019-04-04T11:31:18.022Z,2.77
2019-04-04T11:33:47.596Z,2.57
2019-04-04T11:36:17.307Z,2.03
2019-04-04T11:38:47.593Z,2.50
2019-04-04T11:41:17.410Z,1.90
2019-04-04T11:43:47.794Z,2.50
2019-04-04T11:46:17.559Z,2.53
2019-04-04T11:48:47.977Z,2.40
2019-04-04T11:51:17.719Z,1.93
2019-04-04T11:53:48.027Z,5.23
2019-04-04T11:56:18.385Z,2.90
2019-04-04T11:58:48.114Z,1.93
2019-04-04T12:01:18.147Z,2.73
2019-04-04T12:03:48.477Z,2.10
2019-04-04T12:06:18.257Z,2.13
2019-04-04T12:08:48.602Z,2.70
2019-04-04T12:11:18.462Z,2.53
2019-04-04T12:13:50.565Z,1.63
2019-04-04T12:16:21.142Z,2.60
2019-04-04T12:18:51.520Z,2.47
2019-04-04T12:21:22.315Z,2.13
2019-04-04T12:23:52.724Z,2.07
2019-04-04T12:26:22.524Z,2.30
2019-04-04T12:28:52.218Z,1.90
2019-04-04T12:31:22.592Z,2.27
2019-04-04T12:33:52.378Z,2.17
2019-04-04T12:36:24.707Z,2.53
2019-04-04T12:38:54.314Z,2.40
2019-04-04T12:41:24.768Z,2.40
2019-04-04T12:43:54.601Z,2.73
2019-04-04T12:46:24.322Z,2.57
2019-04-04T12:48:54.048Z,2.53
2019-04-04T12:51:23.837Z,1.97
2019-04-04T12:53:53.525Z,2.40
2019-04-04T12:56:23.914Z,2.20
2019-04-04T12:58:55.261Z,2.00
2019-04-04T13:01:24.851Z,2.53
2019-04-04T13:03:54.435Z,2.07
2019-04-04T13:06:24.054Z,1.57
2019-04-04T13:08:53.663Z,2.00
2019-04-04T13:11:23.244Z,1.87
2019-04-04T13:13:53.488Z,1.83
2019-04-04T13:16:23.183Z,1.90
2019-04-04T13:18:52.812Z,2.70
2019-04-04T13:21:24.193Z,1.80
2019-04-04T13:23:54.695Z,1.77
2019-04-04T13:26:24.433Z,2.22
2019-04-04T13:28:54.051Z,1.97
2019-04-04T13:31:23.695Z,1.47
2019-04-04T13:33:54.036Z,1.70
2019-04-04T13:36:25.143Z,1.40
2019-04-04T13:38:55.208Z,1.80
2019-04-04T13:41:25.737Z,2.30
2019-04-04T13:43:55.507Z,1.93
2019-04-04T13:46:28.066Z,1.93
2019-04-04T13:48:57.997Z,1.90
2019-04-04T13:51:28.424Z,2.20
2019-04-04T13:53:58.939Z,1.97
2019-04-04T13:56:29.493Z,2.35
2019-04-04T13:59:02.486Z,1.70
2019-04-04T14:01:31.017Z,2.00
2019-04-04T14:04:00.772Z,1.53
2019-04-04T14:06:30.395Z,1.80
2019-04-04T14:09:00.003Z,2.30
2019-04-04T14:11:30.278Z,1.83
2019-04-04T14:14:00.622Z,1.60
2019-04-04T14:16:30.328Z,1.60
2019-04-04T14:19:00.569Z,1.43
2019-04-04T14:21:31.687Z,1.70
2019-04-04T14:24:12.362Z,1.90
2019-04-04T14:26:32.671Z,2.30
2019-04-04T14:29:04.516Z,1.60
2019-04-04T14:31:37.851Z,1.57
2019-04-04T14:34:11.240Z,1.40
2019-04-04T14:36:40.538Z,1.30
2019-04-04T14:39:10.867Z,1.17
2019-04-04T14:41:41.272Z,1.37
2019-04-04T14:44:11.755Z,1.67
2019-04-04T14:46:41.424Z,1.20
2019-04-04T14:49:12.352Z,1.70
2019-04-04T14:51:43.751Z,1.53
2019-04-04T14:54:14.198Z,2.43
2019-04-04T14:56:43.930Z,1.87
2019-04-04T14:59:14.230Z,2.37
2019-04-04T15:01:44.532Z,2.03
2019-04-04T15:04:14.855Z,2.33
2019-04-04T15:06:45.227Z,1.93
2019-04-04T15:09:15.609Z,2.50
2019-04-04T15:11:46.159Z,2.70
2019-04-04T15:14:16.479Z,2.07
2019-04-04T15:16:46.923Z,2.23
2019-04-04T15:19:17.387Z,2.80
2019-04-04T15:21:47.865Z,2.57
2019-04-04T15:24:18.229Z,2.50
2019-04-04T15:26:47.892Z,3.20
2019-04-04T15:29:18.255Z,2.60
2019-04-04T15:31:47.974Z,2.73
2019-04-04T15:34:18.239Z,1.83
2019-04-04T15:36:47.918Z,3.13
2019-04-04T15:39:18.240Z,2.70
2019-04-04T15:41:48.554Z,3.67
2019-04-04T15:44:18.859Z,3.33
2019-04-04T15:46:49.225Z,2.50
2019-04-04T15:49:20.249Z,2.57
2019-04-04T15:51:50.586Z,2.80
2019-04-04T15:54:20.913Z,3.10
2019-04-04T15:56:51.348Z,3.13
2019-04-04T15:59:21.721Z,3.17
2019-04-04T16:01:52.024Z,3.70
2019-04-04T16:04:22.510Z,2.60
2019-04-04T16:06:53.059Z,2.20
2019-04-04T16:09:23.326Z,2.80
2019-04-04T16:11:52.978Z,3.00
2019-04-04T16:14:23.143Z,3.13
2019-04-04T16:16:53.546Z,3.13
2019-04-04T16:19:23.995Z,2.60
2019-04-04T16:21:54.483Z,2.67
2019-04-04T16:24:25.033Z,2.70
2019-04-04T16:26:55.508Z,2.73
2019-04-04T16:29:26.022Z,2.20
2019-04-04T16:31:56.498Z,2.20
2019-04-04T16:34:26.928Z,1.80
2019-04-04T16:36:59.320Z,1.70
2019-04-04T16:39:29.756Z,2.00
2019-04-04T16:42:02.402Z,2.20
2019-04-04T16:44:31.510Z,2.73
2019-04-04T16:47:01.821Z,2.90
2019-04-04T16:49:32.249Z,2.47
2019-04-04T16:52:01.959Z,2.50
2019-04-04T16:54:32.359Z,2.40
2019-04-04T16:57:02.787Z,2.50
2019-04-04T16:59:33.238Z,2.87
2019-04-04T17:02:03.794Z,2.70
2019-04-04T17:04:33.557Z,3.03
2019-04-04T17:07:03.934Z,2.77
2019-04-04T17:09:34.416Z,2.93
2019-04-04T17:12:14.405Z,3.10
2019-04-04T17:14:36.848Z,3.10
2019-04-04T17:17:07.281Z,3.03
2019-04-04T17:19:37.010Z,3.62
2019-04-04T17:22:06.627Z,4.23
2019-04-04T17:24:36.387Z,3.13
2019-04-04T17:27:06.035Z,3.40
2019-04-04T17:29:35.738Z,3.07
2019-04-04T17:32:05.361Z,3.27
2019-04-04T17:34:35.690Z,3.37
2019-04-04T17:37:06.523Z,3.50
2019-04-04T17:39:36.514Z,3.00
2019-04-04T17:42:06.728Z,3.50
2019-04-04T17:44:37.133Z,3.20
2019-04-04T17:47:07.658Z,3.33
2019-04-04T17:49:38.116Z,3.67
2019-04-04T17:52:08.440Z,2.63
2019-04-04T17:54:38.819Z,3.03
2019-04-04T17:57:09.627Z,3.00
2019-04-04T17:59:40.086Z,3.10
2019-04-04T18:02:10.485Z,2.90
2019-04-04T18:04:48.264Z,3.43
2019-04-04T18:07:12.132Z,3.40
2019-04-04T18:09:42.352Z,2.93
2019-04-04T18:12:12.690Z,3.60
2019-04-04T18:14:43.015Z,3.47
2019-04-04T18:17:13.348Z,3.83
2019-04-04T18:19:43.031Z,4.30
2019-04-04T18:22:13.268Z,4.57
2019-04-04T18:24:42.882Z,3.70
2019-04-04T18:27:14.265Z,4.67
2019-04-04T18:29:44.594Z,3.70
2019-04-04T18:32:15.271Z,3.00
2019-04-04T18:34:47.718Z,2.90
2019-04-04T18:37:17.257Z,2.95
2019-04-04T18:39:47.573Z,2.50
2019-04-04T18:42:18.035Z,3.00
2019-04-04T18:44:47.779Z,2.50
2019-04-04T18:47:18.289Z,2.77
2019-04-04T18:49:48.679Z,2.80
2019-04-04T18:52:19.584Z,2.95
2019-04-04T18:54:50.007Z,2.63
2019-04-04T18:57:20.433Z,5.40
2019-04-04T18:59:50.807Z,6.03
2019-04-04T19:02:21.186Z,4.00
2019-04-04T19:04:51.763Z,4.57
2019-04-04T19:07:22.090Z,3.67
2019-04-04T19:09:51.736Z,3.67
2019-04-04T19:12:21.978Z,3.07
2019-04-04T19:14:51.571Z,4.10
2019-04-04T19:17:24.478Z,3.97
2019-04-04T19:19:54.207Z,3.73
2019-04-04T19:22:25.358Z,1.93
2019-04-04T19:24:55.615Z,3.10
2019-04-04T19:27:25.308Z,2.97
2019-04-04T19:29:55.527Z,2.30
2019-04-04T19:32:25.887Z,2.77
2019-04-04T19:34:56.194Z,2.40
2019-04-04T19:37:26.517Z,2.70
2019-04-04T19:39:56.857Z,2.93
2019-04-04T19:42:27.183Z,2.80
2019-04-04T19:44:57.544Z,2.57
2019-04-04T19:47:27.915Z,2.70
2019-04-04T19:49:58.285Z,2.43
2019-04-04T19:52:28.653Z,2.50
2019-04-04T19:54:59.327Z,3.17
2019-04-04T19:57:30.260Z,2.87
2019-04-04T19:59:59.954Z,2.40
2019-04-04T20:02:30.216Z,2.37
2019-04-04T20:05:00.011Z,2.23
2019-04-04T20:07:30.334Z,1.80
2019-04-04T20:10:00.778Z,2.30
2019-04-04T20:12:31.348Z,2.27
2019-04-04T20:15:01.818Z,2.30
2019-04-04T20:17:32.322Z,2.43
2019-04-04T20:20:02.807Z,2.63
2019-04-04T20:22:33.195Z,2.50
2019-04-04T20:25:03.691Z,3.50
2019-04-04T20:27:34.266Z,3.10
2019-04-04T20:30:05.454Z,3.43
2019-04-04T20:32:36.767Z,3.03
2019-04-04T20:35:07.907Z,3.07
2019-04-04T20:37:38.330Z,2.60
2019-04-04T20:40:08.839Z,2.37
2019-04-04T20:42:39.206Z,2.33
2019-04-04T20:45:09.722Z,2.67
2019-04-04T20:47:40.080Z,3.37
2019-04-04T20:50:10.400Z,2.58
2019-04-04T20:52:42.510Z,2.63
2019-04-04T20:55:12.607Z,1.67
2019-04-04T20:57:44.027Z,2.73
2019-04-04T21:00:14.495Z,2.57
2019-04-04T21:02:44.195Z,2.93
2019-04-04T21:05:14.490Z,2.67
2019-04-04T21:07:44.831Z,2.20
2019-04-04T21:10:15.167Z,2.23
2019-04-04T21:12:45.527Z,2.20
2019-04-04T21:15:15.946Z,2.53
2019-04-04T21:17:46.274Z,2.10
2019-04-04T21:20:16.623Z,2.10
2019-04-04T21:22:46.956Z,1.90
2019-04-04T21:25:17.275Z,1.90
2019-04-04T21:27:47.720Z,2.57
2019-04-04T21:30:17.384Z,2.63
2019-04-04T21:32:47.639Z,2.27
2019-04-04T21:35:18.067Z,3.13
2019-04-04T21:37:47.751Z,2.93
2019-04-04T21:40:17.978Z,3.03
2019-04-04T21:42:48.413Z,2.73
2019-04-04T21:45:18.732Z,2.93
2019-04-04T21:47:49.023Z,2.67
2019-04-04T21:50:19.427Z,2.57
2019-04-04T21:52:49.735Z,2.43
2019-04-04T21:55:20.104Z,2.90
2019-04-04T21:57:50.451Z,2.17
2019-04-04T22:00:21.468Z,2.07
2019-04-04T22:02:51.880Z,2.97
2019-04-04T22:05:22.187Z,2.57
2019-04-04T22:07:52.535Z,2.40
2019-04-04T22:10:22.183Z,2.40
2019-04-04T22:12:52.422Z,2.70
2019-04-04T22:15:22.746Z,2.40
2019-04-04T22:17:53.092Z,2.63
2019-04-04T22:20:23.395Z,2.50
2019-04-04T22:22:53.078Z,2.20
2019-04-04T22:25:22.635Z,2.93
2019-04-04T22:27:52.880Z,3.03
2019-04-04T22:30:23.195Z,2.70
2019-04-04T22:32:53.523Z,2.57
2019-04-04T22:35:23.847Z,1.90
2019-04-04T22:37:54.183Z,2.53
2019-04-04T22:40:24.484Z,2.85
2019-04-04T22:42:54.998Z,2.70
2019-04-04T22:45:25.235Z,2.47
2019-04-04T22:47:55.563Z,2.77
2019-04-04T22:50:25.234Z,2.72
2019-04-04T22:52:55.463Z,2.70
2019-04-04T22:55:26.525Z,2.40
2019-04-04T22:57:57.027Z,2.50
2019-04-04T23:00:27.387Z,2.73
2019-04-04T23:02:57.555Z,2.40
2019-04-04T23:05:27.776Z,2.53
2019-04-04T23:07:57.981Z,2.33
2019-04-04T23:10:28.583Z,2.40
2019-04-04T23:12:58.967Z,3.40
2019-04-04T23:15:28.669Z,2.60
2019-04-04T23:17:58.972Z,2.63
2019-04-04T23:20:28.642Z,2.17
2019-04-04T23:23:01.157Z,2.50
2019-04-04T23:25:30.842Z,2.57
2019-04-04T23:28:01.187Z,2.60
2019-04-04T23:30:30.829Z,2.43
2019-04-04T23:33:01.075Z,2.30
2019-04-04T23:35:30.731Z,2.90
2019-04-04T23:38:00.998Z,2.70
2019-04-04T23:40:34.224Z,2.63
2019-04-04T23:43:03.897Z,2.27
2019-04-04T23:45:34.433Z,2.50
2019-04-04T23:48:05.290Z,2.52
2019-04-04T23:50:38.336Z,3.50
2019-04-04T23:53:08.642Z,2.87
2019-04-04T23:55:38.302Z,2.53
2019-04-04T23:58:08.570Z,2.70
